Nearby METAR Reports

 

KBUF - Buffalo/Cheektow, New York, USA
Distance from station: ENE 2mi, 3km
Updated: 11/17/2017 10:54pm
Mostly cloudy
Mostly cloudy
 Wind from SE
Wind: SE 6 mph , 9 km/h
Temperature: 34°F , 1°C
Wind Chill: 29°F , -2°C
Dew Point: 27°F , -3°C
Humidity: 75%
Barometer: 29.91 inHg , 1012.9 hPa
Clouds: Mostly cloudy
Visibility: 10 miles , 16 km
Cloud details: Few Clouds 12000 ft
Mostly cloudy 14000 ft
Mostly cloudy 25000 ft
2017/11/18 03:54 KBUF 180354Z 13005KT 10SM FEW120 BKN140 BKN250 01/M03 A2991 RMK AO2 SLP137 T00061033
KIAG - Niagara Falls, New York, USA
Distance from station: NNW 16mi, 25km
Updated: 11/17/2017 10:53pm
Few Clouds
Few Clouds
 Wind from ESE
Wind: ESE 7 mph , 11 km/h
Temperature: 34°F , 1°C
Wind Chill: 28°F , -2°C
Dew Point: 25°F , -4°C
Humidity: 70%
Barometer: 29.90 inHg , 1012.5 hPa
Clouds: Few Clouds
Visibility: 10 miles , 16 km
Cloud details: Few Clouds 12000 ft
2017/11/18 03:53 KIAG 180353Z 12006KT 10SM FEW120 01/M04 A2990 RMK AO2 SLP139 T00111039
 
CYSN - St. Catharines A, Ontario, Canada
Distance from station: NW 28mi, 45km
Updated: 11/17/2017 9:00pm
NOT Current
Overcast
Overcast
 Wind from E
Wind: E 6 mph , 9 km/h
Temperature: 34°F , 1°C
Wind Chill: 29°F , -2°C
Dew Point: 28°F , -2°C
Humidity: 81%
Barometer: 29.97 inHg , 1014.9 hPa
Clouds: Overcast
Visibility: 15 miles , 24 km
Cloud details: Overcast 11000 ft
2017/11/18 02:00 CYSN 180200Z 09005KT 15SM OVC110 01/M02 A2997 RMK AC8 LAST STFD OBS/NEXT 18 1200UTC SLP154
CWWZ - Port Weller (mar, Ontario, Canada
Distance from station: NW 32mi, 51km
Updated: 11/17/2017 11:00pm

 Wind from ESE
Wind: ESE 9 mph , 15 km/h
Temperature: 36°F , 2°C
Wind Chill: 29°F , -2°C
Dew Point: 30°F , -1°C
Humidity: 81%
2017/11/18 04:00 CWWZ 180400Z AUTO 12008KT 02/M01 RMK AO1 SOG 00 8038 SLP128 T00221013
 
CXVN - Vineland (au8), Ontario, Canada
Distance from station: WNW 37mi, 59km
Updated: 11/17/2017 11:00pm

 Wind from ESE
Wind: ESE 3 mph , 6 km/h
Temperature: 34°F , 1°C
Dew Point: 28°F , -2°C
Humidity: 81%
2017/11/18 04:00 CXVN 180400Z AUTO 12003KT 01/M02 RMK AO1 SLP121 T00131019 58039
KDKK - Dunkirk, New York, USA
Distance from station: SW 39mi, 63km
Updated: 11/17/2017 10:53pm
Clear
Clear
 Wind from SSW
Wind: SSW 12 mph , 19 km/h
Temperature: 37°F , 3°C
Wind Chill: 29°F , -2°C
Dew Point: 28°F , -2°C
Humidity: 70%
Barometer: 29.90 inHg , 1012.5 hPa
Clouds: Clear
Visibility: 10 miles , 16 km
2017/11/18 03:53 KDKK 180353Z AUTO 21010KT 10SM CLR 03/M02 A2990 RMK AO2 SLP132 T00281022
 
KOLE - Olean, New York, USA
Distance from station: SSE 52mi, 83km
Updated: 11/17/2017 11:15pm
Clear
Clear
 Wind from SSW
Wind: SSW 7 mph , 11 km/h
Temperature: 32°F , 0°C
Wind Chill: 25°F , -4°C
Dew Point: 25°F , -4°C
Humidity: 75%
Barometer: 29.91 inHg , 1012.9 hPa
Clouds: Clear
Visibility: 10 miles , 16 km
2017/11/18 04:15 KOLE 180415Z AUTO 20006KT 10SM CLR 00/M04 A2991 RMK AO2
KROC - Rochester, New York, USA
Distance from station: ENE 56mi, 91km
Updated: 11/17/2017 10:54pm
Mostly cloudy
Mostly cloudy
 Wind from SE
Wind: SE 5 mph , 7 km/h
Temperature: 34°F , 1°C
Wind Chill: 29°F , -2°C
Dew Point: 27°F , -3°C
Humidity: 75%
Barometer: 29.95 inHg , 1014.2 hPa
Clouds: Mostly cloudy
Visibility: 10 miles , 16 km
Cloud details: Mostly cloudy 10000 ft
2017/11/18 03:54 KROC 180354Z 14004KT 10SM BKN100 01/M03 A2995 RMK AO2 SLP152 T00111033
 
CWWB - Burlington Piers, Ontario, Canada
Distance from station: WNW 57mi, 92km
Updated: 11/17/2017 11:00pm

 Wind from ENE
Wind: ENE 9 mph , 15 km/h
Temperature: 37°F , 3°C
Wind Chill: 30°F , -1°C
Dew Point: 30°F , -1°C
Humidity: 75%
2017/11/18 04:00 CWWB 180400Z AUTO 07008KT 03/M01 RMK AO1 SLP127 T00331009 58036
CYTZ - Toronto Il Vor, Ontario, Canada
Distance from station: NNW 58mi, 94km
Updated: 11/17/2017 11:00pm
Clear
Clear
 Wind from E
Wind: E 8 mph , 13 km/h
Temperature: 39°F , 4°C
Wind Chill: 33°F , 1°C
Dew Point: 30°F , -1°C
Humidity: 70%
Barometer: 29.90 inHg , 1012.5 hPa
Clouds: Clear
Visibility: 9 miles , 14 km
2017/11/18 04:00 CYTZ 180400Z AUTO 10007KT 9SM CLR 04/M01 A2990 RMK SLP128
 
KDSV - Dansville, New York, USA
Distance from station: ESE 59mi, 95km
Updated: 11/17/2017 10:54pm
Few Clouds
Few Clouds
 Wind from SSE
Wind: SSE 9 mph , 15 km/h
Temperature: 34°F , 1°C
Wind Chill: 27°F , -3°C
Dew Point: 25°F , -4°C
Humidity: 70%
Barometer: 29.95 inHg , 1014.2 hPa
Clouds: Few Clouds
Visibility: 10 miles , 16 km
Cloud details: Few Clouds 10000 ft
2017/11/18 03:54 KDSV 180354Z AUTO 16008KT 10SM FEW100 01/M04 A2995 RMK AO2 SLP159 T00111044
CXTO - Toronto City, Ontario, Canada
Distance from station: NNW 60mi, 97km
Updated: 11/17/2017 11:00pm

 
Temperature: 37°F , 3°C
Dew Point: 30°F , -1°C
Humidity: 75%
2017/11/18 04:00 CXTO 180400Z AUTO 03/M01 RMK AO1 SLP127 T00311013 58037
 
KJHW - Jamestown, New York, USA
Distance from station: SSW 60mi, 97km
Updated: 11/17/2017 10:56pm
Clear
Clear
 Wind from S
Wind: S 8 mph , 13 km/h
Temperature: 32°F , 0°C
Wind Chill: 25°F , -4°C
Dew Point: 27°F , -3°C
Humidity: 80%
Barometer: 29.91 inHg , 1012.9 hPa
Clouds: Clear
Visibility: 10 miles , 16 km
2017/11/18 03:56 KJHW 180356Z AUTO 18007KT 10SM CLR 00/M03 A2991 RMK AO2 SLP151 T00001028 FZRANO
CYHM - Hamilton Airport, Ontario, Canada
Distance from station: WNW 61mi, 98km
Updated: 11/17/2017 11:00pm
Mostly cloudy
Mostly cloudy
 Wind from E
Wind: E 5 mph , 7 km/h
Temperature: 30°F , -1°C
Wind Chill: 25°F , -4°C
Dew Point: 28°F , -2°C
Humidity: 93%
Barometer: 29.87 inHg , 1011.5 hPa
Clouds: Mostly cloudy
Visibility: 15 miles , 24 km
Cloud details: Few Clouds 14000 ft
Mostly cloudy 25000 ft
2017/11/18 04:00 CYHM 180400Z 08004KT 15SM FEW140 BKN250 M01/M02 A2987 RMK AC2CI3 SLP127
 
CXHM - Hamilton Rbg Cs, Ontario, Canada
Distance from station: WNW 62mi, 100km
Updated: 10/30/2017 11:00am
NOT Current

 Wind from WSW
Wind: WSW 8 mph , 13 km/h, Gust: 21 mph , 33 km/h
Temperature: 46°F , 8°C
Wind Chill: 42°F , 6°C
Dew Point: 37°F , 3°C
Humidity: 71%
2017/10/30 15:00 CXHM 301500Z AUTO 25007G18KT 08/03 RMK AO1 PK WND 29022/1404 SLP982 T00760027 50010
CYYZ - Toronto/Pearson, Ontario, Canada
Distance from station: NW 67mi, 107km
Updated: 11/17/2017 11:00pm
Mostly cloudy
Mostly cloudy
 Wind from ESE
Wind: ESE 9 mph , 15 km/h
Temperature: 36°F , 2°C
Wind Chill: 29°F , -2°C
Dew Point: 28°F , -2°C
Humidity: 75%
Barometer: 29.88 inHg , 1011.9 hPa
Clouds: Mostly cloudy
Visibility: 15 miles , 24 km
Cloud details: Few Clouds 9000 ft
Mostly cloudy 11000 ft
2017/11/18 04:00 CYYZ 180400Z 12008KT 15SM FEW090 BKN110 02/M02 A2988 RMK AC1AS6 SLP128
 
CWPS - Long Point (maps, Ontario, Canada
Distance from station: WSW 69mi, 111km
Updated: 11/17/2017 10:00pm
NOT Current

 Wind from SE
Wind: SE 23 mph , 37 km/h
Temperature: 43°F , 6°C
Wind Chill: 34°F , 1°C
Dew Point: 30°F , -1°C
Humidity: 61%
2017/11/18 03:00 CWPS 180300Z AUTO 14020KT 06/M01 RMK AO1 PK WND 15027/0200 SLP122 T00641009 58038
CYOO - Oshawa, Ontario, Canada
Distance from station: N 69mi, 111km
Updated: 11/17/2017 11:00pm
Mostly cloudy
Mostly cloudy
 Wind from ESE
Wind: ESE 8 mph , 13 km/h
Temperature: 36°F , 2°C
Wind Chill: 30°F , -1°C
Dew Point: 28°F , -2°C
Humidity: 75%
Barometer: 29.91 inHg , 1012.9 hPa
Clouds: Mostly cloudy
Visibility: 9 miles , 14 km
Cloud details: Mostly cloudy 12000 ft
2017/11/18 04:00 CYOO 180400Z AUTO 12007KT 9SM BKN120 02/M02 A2991 RMK SLP137
 
KELZ - Wellsville, New York, USA
Distance from station: SE 70mi, 112km
Updated: 11/17/2017 10:56pm
Clear
Clear
 Wind from S
Wind: S 6 mph , 9 km/h
Temperature: 37°F , 3°C
Wind Chill: 32°F , 0°C
Dew Point: 19°F , -7°C
Humidity: 48%
Barometer: 29.94 inHg , 1013.9 hPa
Clouds: Clear
Visibility: 10 miles , 16 km
2017/11/18 03:56 KELZ 180356Z AUTO 19005KT 10SM CLR 03/M07 A2994 RMK AO2 SLP157 T00281067
CYKZ - Toronto Buttonvi, Ontario, Canada
Distance from station: NNW 72mi, 116km
Updated: 11/17/2017 11:00pm
Mostly cloudy
Mostly cloudy
 Wind from SE
Wind: SE 6 mph , 9 km/h
Temperature: 34°F , 1°C
Wind Chill: 29°F , -2°C
Dew Point: 28°F , -2°C
Humidity: 81%
Barometer: 29.89 inHg , 1012.2 hPa
Clouds: Mostly cloudy
Visibility: 15 miles , 24 km
Cloud details: Partly cloudy 12000 ft
Mostly cloudy 22000 ft
2017/11/18 04:00 CYKZ 180400Z 14005KT 15SM SCT120 BKN220 01/M02 A2989 RMK AC3CI2 SLP131